sensor_id;sensor_type;location;lat;lon;timestamp;temperature;humidity
11126;DHT22;5617;54.046;10.676;2022-08-21T00:00:13;15.70;99.90
11126;DHT22;5617;54.046;10.676;2022-08-21T00:02:23;15.70;99.90
11126;DHT22;5617;54.046;10.676;2022-08-21T00:04:32;15.70;99.90
11126;DHT22;5617;54.046;10.676;2022-08-21T00:06:40;15.70;99.90
11126;DHT22;5617;54.046;10.676;2022-08-21T00:08:47;15.60;99.90
11126;DHT22;5617;54.046;10.676;2022-08-21T00:10:55;15.70;99.90
11126;DHT22;5617;54.046;10.676;2022-08-21T00:13:03;15.70;99.90
11126;DHT22;5617;54.046;10.676;2022-08-21T00:15:12;15.60;99.90
11126;DHT22;5617;54.046;10.676;2022-08-21T00:17:20;15.60;99.90
11126;DHT22;5617;54.046;10.676;2022-08-21T00:19:28;15.60;99.90
11126;DHT22;5617;54.046;10.676;2022-08-21T00:21:38;15.60;99.90
11126;DHT22;5617;54.046;10.676;2022-08-21T00:23:46;15.60;99.90
11126;DHT22;5617;54.046;10.676;2022-08-21T00:25:53;15.50;99.90
11126;DHT22;5617;54.046;10.676;2022-08-21T00:28:01;15.50;99.90
11126;DHT22;5617;54.046;10.676;2022-08-21T00:30:11;15.40;99.90
11126;DHT22;5617;54.046;10.676;2022-08-21T00:32:23;15.40;99.90
11126;DHT22;5617;54.046;10.676;2022-08-21T00:34:31;15.40;99.90
11126;DHT22;5617;54.046;10.676;2022-08-21T00:36:40;15.40;99.90
11126;DHT22;5617;54.046;10.676;2022-08-21T00:38:47;15.40;99.90
11126;DHT22;5617;54.046;10.676;2022-08-21T00:40:58;15.30;99.90
11126;DHT22;5617;54.046;10.676;2022-08-21T00:43:08;15.20;99.90
11126;DHT22;5617;54.046;10.676;2022-08-21T00:45:16;15.20;99.90
11126;DHT22;5617;54.046;10.676;2022-08-21T00:47:24;15.20;99.90
11126;DHT22;5617;54.046;10.676;2022-08-21T00:49:31;15.20;99.90
11126;DHT22;5617;54.046;10.676;2022-08-21T00:51:44;15.10;99.90
11126;DHT22;5617;54.046;10.676;2022-08-21T00:53:56;15.10;99.90
11126;DHT22;5617;54.046;10.676;2022-08-21T00:56:09;15.00;99.90
11126;DHT22;5617;54.046;10.676;2022-08-21T00:58:18;15.00;99.90
11126;DHT22;5617;54.046;10.676;2022-08-21T01:00:29;15.00;99.90
11126;DHT22;5617;54.046;10.676;2022-08-21T01:02:37;15.00;99.90
11126;DHT22;5617;54.046;10.676;2022-08-21T01:04:45;14.90;99.90
11126;DHT22;5617;54.046;10.676;2022-08-21T01:06:55;14.90;99.90
11126;DHT22;5617;54.046;10.676;2022-08-21T01:09:03;14.90;99.90
11126;DHT22;5617;54.046;10.676;2022-08-21T01:11:11;14.90;99.90
11126;DHT22;5617;54.046;10.676;2022-08-21T01:13:21;14.90;99.90
11126;DHT22;5617;54.046;10.676;2022-08-21T01:15:33;14.80;99.90
11126;DHT22;5617;54.046;10.676;2022-08-21T01:17:41;14.80;99.90
11126;DHT22;5617;54.046;10.676;2022-08-21T01:19:49;14.80;99.90
11126;DHT22;5617;54.046;10.676;2022-08-21T01:21:58;14.90;99.90
11126;DHT22;5617;54.046;10.676;2022-08-21T01:24:06;14.70;99.90
11126;DHT22;5617;54.046;10.676;2022-08-21T01:26:15;14.70;99.90
11126;DHT22;5617;54.046;10.676;2022-08-21T01:28:24;14.70;99.90
11126;DHT22;5617;54.046;10.676;2022-08-21T01:30:34;14.60;99.90
11126;DHT22;5617;54.046;10.676;2022-08-21T01:32:43;14.60;99.90
11126;DHT22;5617;54.046;10.676;2022-08-21T01:34:52;14.60;99.90
11126;DHT22;5617;54.046;10.676;2022-08-21T01:37:02;14.60;99.90
11126;DHT22;5617;54.046;10.676;2022-08-21T01:39:09;14.50;99.90
11126;DHT22;5617;54.046;10.676;2022-08-21T01:41:17;14.50;99.90
11126;DHT22;5617;54.046;10.676;2022-08-21T01:43:25;14.50;99.90
11126;DHT22;5617;54.046;10.676;2022-08-21T01:45:32;14.50;99.90
11126;DHT22;5617;54.046;10.676;2022-08-21T01:47:41;14.50;99.90
11126;DHT22;5617;54.046;10.676;2022-08-21T01:49:49;14.50;99.90
11126;DHT22;5617;54.046;10.676;2022-08-21T01:51:57;14.50;99.90
11126;DHT22;5617;54.046;10.676;2022-08-21T01:54:07;14.40;99.90
11126;DHT22;5617;54.046;10.676;2022-08-21T01:56:16;14.40;99.90
11126;DHT22;5617;54.046;10.676;2022-08-21T01:58:24;14.40;99.90
11126;DHT22;5617;54.046;10.676;2022-08-21T02:00:32;14.40;99.90
11126;DHT22;5617;54.046;10.676;2022-08-21T02:02:41;14.40;99.90
11126;DHT22;5617;54.046;10.676;2022-08-21T02:04:48;14.40;99.90
11126;DHT22;5617;54.046;10.676;2022-08-21T02:06:56;14.40;99.90
11126;DHT22;5617;54.046;10.676;2022-08-21T02:09:08;14.30;99.90
11126;DHT22;5617;54.046;10.676;2022-08-21T02:11:15;14.30;99.90
11126;DHT22;5617;54.046;10.676;2022-08-21T02:13:23;14.30;99.90
11126;DHT22;5617;54.046;10.676;2022-08-21T02:15:31;14.30;99.90
11126;DHT22;5617;54.046;10.676;2022-08-21T02:17:41;14.30;99.90
11126;DHT22;5617;54.046;10.676;2022-08-21T02:19:49;14.20;99.90
11126;DHT22;5617;54.046;10.676;2022-08-21T02:21:57;14.20;99.90
11126;DHT22;5617;54.046;10.676;2022-08-21T02:24:07;14.20;99.90
11126;DHT22;5617;54.046;10.676;2022-08-21T02:26:15;14.20;99.90
11126;DHT22;5617;54.046;10.676;2022-08-21T02:28:22;14.20;99.90
11126;DHT22;5617;54.046;10.676;2022-08-21T02:30:34;14.20;99.90
11126;DHT22;5617;54.046;10.676;2022-08-21T02:32:42;14.20;99.90
11126;DHT22;5617;54.046;10.676;2022-08-21T02:34:49;14.10;99.90
11126;DHT22;5617;54.046;10.676;2022-08-21T02:36:57;14.10;99.90
11126;DHT22;5617;54.046;10.676;2022-08-21T02:39:06;14.10;99.90
11126;DHT22;5617;54.046;10.676;2022-08-21T02:41:16;14.10;99.90
11126;DHT22;5617;54.046;10.676;2022-08-21T02:43:26;14.10;99.90
11126;DHT22;5617;54.046;10.676;2022-08-21T02:45:35;14.10;99.90
11126;DHT22;5617;54.046;10.676;2022-08-21T02:47:47;14.10;99.90
11126;DHT22;5617;54.046;10.676;2022-08-21T02:49:55;14.10;99.90
11126;DHT22;5617;54.046;10.676;2022-08-21T02:52:02;14.00;99.90
11126;DHT22;5617;54.046;10.676;2022-08-21T02:54:13;14.00;99.90
11126;DHT22;5617;54.046;10.676;2022-08-21T02:56:22;14.00;99.90
11126;DHT22;5617;54.046;10.676;2022-08-21T02:58:33;13.90;99.90
11126;DHT22;5617;54.046;10.676;2022-08-21T03:00:42;13.90;99.90
11126;DHT22;5617;54.046;10.676;2022-08-21T03:02:50;13.90;99.90
11126;DHT22;5617;54.046;10.676;2022-08-21T03:04:58;13.70;99.90
11126;DHT22;5617;54.046;10.676;2022-08-21T03:07:06;13.70;99.90
11126;DHT22;5617;54.046;10.676;2022-08-21T03:09:15;13.60;99.90
11126;DHT22;5617;54.046;10.676;2022-08-21T03:11:23;13.60;99.90
11126;DHT22;5617;54.046;10.676;2022-08-21T03:13:31;13.60;99.90
11126;DHT22;5617;54.046;10.676;2022-08-21T03:15:40;13.70;99.90
11126;DHT22;5617;54.046;10.676;2022-08-21T03:17:48;13.70;99.90
11126;DHT22;5617;54.046;10.676;2022-08-21T03:19:56;13.70;99.90
11126;DHT22;5617;54.046;10.676;2022-08-21T03:22:04;13.70;99.90
11126;DHT22;5617;54.046;10.676;2022-08-21T03:24:12;13.70;99.90
11126;DHT22;5617;54.046;10.676;2022-08-21T03:26:21;13.60;99.90
11126;DHT22;5617;54.046;10.676;2022-08-21T03:28:30;13.60;99.90
11126;DHT22;5617;54.046;10.676;2022-08-21T03:30:38;13.60;99.90
11126;DHT22;5617;54.046;10.676;2022-08-21T03:32:47;13.60;99.90
11126;DHT22;5617;54.046;10.676;2022-08-21T03:34:55;13.60;99.90
11126;DHT22;5617;54.046;10.676;2022-08-21T03:37:02;13.60;99.90
11126;DHT22;5617;54.046;10.676;2022-08-21T03:39:10;13.60;99.90
11126;DHT22;5617;54.046;10.676;2022-08-21T03:41:18;13.60;99.90
11126;DHT22;5617;54.046;10.676;2022-08-21T03:43:28;13.60;99.90
11126;DHT22;5617;54.046;10.676;2022-08-21T03:45:36;13.60;99.90
11126;DHT22;5617;54.046;10.676;2022-08-21T03:47:53;13.60;99.90
11126;DHT22;5617;54.046;10.676;2022-08-21T03:50:02;13.60;99.90
11126;DHT22;5617;54.046;10.676;2022-08-21T03:52:10;13.60;99.90
11126;DHT22;5617;54.046;10.676;2022-08-21T03:54:18;13.50;99.90
11126;DHT22;5617;54.046;10.676;2022-08-21T03:56:25;13.50;99.90
11126;DHT22;5617;54.046;10.676;2022-08-21T03:58:34;13.50;99.90
11126;DHT22;5617;54.046;10.676;2022-08-21T04:00:43;13.40;99.90
11126;DHT22;5617;54.046;10.676;2022-08-21T04:02:51;13.40;99.90
11126;DHT22;5617;54.046;10.676;2022-08-21T04:04:59;13.40;99.90
11126;DHT22;5617;54.046;10.676;2022-08-21T04:07:06;13.40;99.90
11126;DHT22;5617;54.046;10.676;2022-08-21T04:09:14;13.40;99.90
11126;DHT22;5617;54.046;10.676;2022-08-21T04:11:22;13.30;99.90
11126;DHT22;5617;54.046;10.676;2022-08-21T04:13:29;13.40;99.90
11126;DHT22;5617;54.046;10.676;2022-08-21T04:15:39;13.40;99.90
11126;DHT22;5617;54.046;10.676;2022-08-21T04:17:47;13.40;99.90
11126;DHT22;5617;54.046;10.676;2022-08-21T04:19:55;13.40;99.90
11126;DHT22;5617;54.046;10.676;2022-08-21T04:22:02;13.40;99.90
11126;DHT22;5617;54.046;10.676;2022-08-21T04:24:10;13.40;99.90
11126;DHT22;5617;54.046;10.676;2022-08-21T04:26:18;13.40;99.90
11126;DHT22;5617;54.046;10.676;2022-08-21T04:28:27;13.40;99.90
11126;DHT22;5617;54.046;10.676;2022-08-21T04:30:34;13.40;99.90
11126;DHT22;5617;54.046;10.676;2022-08-21T04:32:46;13.40;99.90
11126;DHT22;5617;54.046;10.676;2022-08-21T04:34:58;13.40;99.90
11126;DHT22;5617;54.046;10.676;2022-08-21T04:37:05;13.40;99.90
11126;DHT22;5617;54.046;10.676;2022-08-21T04:39:13;13.40;99.90
11126;DHT22;5617;54.046;10.676;2022-08-21T04:41:21;13.40;99.90
11126;DHT22;5617;54.046;10.676;2022-08-21T04:43:29;13.40;99.90
11126;DHT22;5617;54.046;10.676;2022-08-21T04:45:38;13.40;99.90
11126;DHT22;5617;54.046;10.676;2022-08-21T04:47:49;13.40;99.90
11126;DHT22;5617;54.046;10.676;2022-08-21T04:49:57;13.40;99.90
11126;DHT22;5617;54.046;10.676;2022-08-21T04:52:05;13.50;99.90
11126;DHT22;5617;54.046;10.676;2022-08-21T04:54:18;13.50;99.90
11126;DHT22;5617;54.046;10.676;2022-08-21T04:56:29;13.50;99.90
11126;DHT22;5617;54.046;10.676;2022-08-21T04:58:39;13.60;99.90
11126;DHT22;5617;54.046;10.676;2022-08-21T05:00:48;13.70;99.90
11126;DHT22;5617;54.046;10.676;2022-08-21T05:03:01;13.80;99.90
11126;DHT22;5617;54.046;10.676;2022-08-21T05:05:10;14.00;99.90
11126;DHT22;5617;54.046;10.676;2022-08-21T05:07:20;14.10;99.90
11126;DHT22;5617;54.046;10.676;2022-08-21T05:09:31;14.30;99.90
11126;DHT22;5617;54.046;10.676;2022-08-21T05:11:39;14.40;99.90
11126;DHT22;5617;54.046;10.676;2022-08-21T05:13:48;14.40;99.90
11126;DHT22;5617;54.046;10.676;2022-08-21T05:15:55;14.50;99.90
11126;DHT22;5617;54.046;10.676;2022-08-21T05:18:04;14.50;99.90
11126;DHT22;5617;54.046;10.676;2022-08-21T05:20:15;14.50;99.90
11126;DHT22;5617;54.046;10.676;2022-08-21T05:22:23;14.50;99.90
11126;DHT22;5617;54.046;10.676;2022-08-21T05:24:31;14.50;99.90
11126;DHT22;5617;54.046;10.676;2022-08-21T05:26:40;14.50;99.90
11126;DHT22;5617;54.046;10.676;2022-08-21T05:28:47;14.50;99.90
11126;DHT22;5617;54.046;10.676;2022-08-21T05:30:55;14.50;99.90
11126;DHT22;5617;54.046;10.676;2022-08-21T05:33:05;14.50;99.90
11126;DHT22;5617;54.046;10.676;2022-08-21T05:35:13;14.50;99.90
11126;DHT22;5617;54.046;10.676;2022-08-21T05:37:21;14.50;99.90
11126;DHT22;5617;54.046;10.676;2022-08-21T05:39:29;14.60;99.90
11126;DHT22;5617;54.046;10.676;2022-08-21T05:41:36;14.60;99.90
11126;DHT22;5617;54.046;10.676;2022-08-21T05:43:44;14.60;99.90
11126;DHT22;5617;54.046;10.676;2022-08-21T05:45:52;14.80;99.90
11126;DHT22;5617;54.046;10.676;2022-08-21T05:48:06;14.70;99.90
11126;DHT22;5617;54.046;10.676;2022-08-21T05:50:14;14.80;99.90
11126;DHT22;5617;54.046;10.676;2022-08-21T05:52:22;14.80;99.90
11126;DHT22;5617;54.046;10.676;2022-08-21T05:54:30;14.90;99.90
11126;DHT22;5617;54.046;10.676;2022-08-21T05:56:38;14.90;99.90
11126;DHT22;5617;54.046;10.676;2022-08-21T05:58:45;15.10;99.90
11126;DHT22;5617;54.046;10.676;2022-08-21T06:00:53;15.20;99.90
11126;DHT22;5617;54.046;10.676;2022-08-21T06:03:01;15.30;99.90
11126;DHT22;5617;54.046;10.676;2022-08-21T06:05:10;15.50;99.90
11126;DHT22;5617;54.046;10.676;2022-08-21T06:07:19;15.70;99.90
11126;DHT22;5617;54.046;10.676;2022-08-21T06:09:28;15.80;99.90
11126;DHT22;5617;54.046;10.676;2022-08-21T06:11:36;15.90;99.90
11126;DHT22;5617;54.046;10.676;2022-08-21T06:13:43;15.90;99.90
11126;DHT22;5617;54.046;10.676;2022-08-21T06:16:01;15.90;99.90
11126;DHT22;5617;54.046;10.676;2022-08-21T06:18:09;16.00;99.90
11126;DHT22;5617;54.046;10.676;2022-08-21T06:20:18;16.00;99.90
11126;DHT22;5617;54.046;10.676;2022-08-21T06:22:26;16.10;99.90
11126;DHT22;5617;54.046;10.676;2022-08-21T06:24:34;16.30;99.90
11126;DHT22;5617;54.046;10.676;2022-08-21T06:26:43;16.40;99.90
11126;DHT22;5617;54.046;10.676;2022-08-21T06:28:50;16.50;99.90
11126;DHT22;5617;54.046;10.676;2022-08-21T06:30:59;16.70;99.90
11126;DHT22;5617;54.046;10.676;2022-08-21T06:33:07;16.90;99.90
11126;DHT22;5617;54.046;10.676;2022-08-21T06:35:15;17.00;99.90
11126;DHT22;5617;54.046;10.676;2022-08-21T06:37:24;17.20;99.90
11126;DHT22;5617;54.046;10.676;2022-08-21T06:39:32;17.30;99.90
11126;DHT22;5617;54.046;10.676;2022-08-21T06:41:39;17.40;99.90
11126;DHT22;5617;54.046;10.676;2022-08-21T06:43:47;17.60;99.90
11126;DHT22;5617;54.046;10.676;2022-08-21T06:45:55;17.70;99.90
11126;DHT22;5617;54.046;10.676;2022-08-21T06:48:03;17.90;99.90
11126;DHT22;5617;54.046;10.676;2022-08-21T06:50:11;18.10;99.90
11126;DHT22;5617;54.046;10.676;2022-08-21T06:52:19;18.20;99.90
11126;DHT22;5617;54.046;10.676;2022-08-21T06:54:28;18.50;99.90
11126;DHT22;5617;54.046;10.676;2022-08-21T06:56:36;18.50;99.90
11126;DHT22;5617;54.046;10.676;2022-08-21T06:58:44;18.50;99.90
11126;DHT22;5617;54.046;10.676;2022-08-21T07:00:52;18.50;99.90
11126;DHT22;5617;54.046;10.676;2022-08-21T07:03:00;18.70;99.90
11126;DHT22;5617;54.046;10.676;2022-08-21T07:05:09;18.70;99.90
11126;DHT22;5617;54.046;10.676;2022-08-21T07:07:17;18.80;99.90
11126;DHT22;5617;54.046;10.676;2022-08-21T07:09:25;19.00;99.90
11126;DHT22;5617;54.046;10.676;2022-08-21T07:11:35;19.00;99.90
11126;DHT22;5617;54.046;10.676;2022-08-21T07:13:44;19.20;99.90
11126;DHT22;5617;54.046;10.676;2022-08-21T07:15:51;19.30;99.90
11126;DHT22;5617;54.046;10.676;2022-08-21T07:17:59;19.40;99.90
11126;DHT22;5617;54.046;10.676;2022-08-21T07:20:08;19.60;99.90
11126;DHT22;5617;54.046;10.676;2022-08-21T07:22:17;19.70;99.90
11126;DHT22;5617;54.046;10.676;2022-08-21T07:24:25;19.80;99.90
11126;DHT22;5617;54.046;10.676;2022-08-21T07:26:34;20.00;99.90
11126;DHT22;5617;54.046;10.676;2022-08-21T07:28:42;20.20;99.90
11126;DHT22;5617;54.046;10.676;2022-08-21T07:30:51;20.30;99.90
11126;DHT22;5617;54.046;10.676;2022-08-21T07:33:00;20.40;99.90
11126;DHT22;5617;54.046;10.676;2022-08-21T07:35:08;20.50;99.90
11126;DHT22;5617;54.046;10.676;2022-08-21T07:37:15;20.60;99.90
11126;DHT22;5617;54.046;10.676;2022-08-21T07:39:23;20.80;99.90
11126;DHT22;5617;54.046;10.676;2022-08-21T07:41:30;20.90;99.90
11126;DHT22;5617;54.046;10.676;2022-08-21T07:43:39;21.10;99.90
11126;DHT22;5617;54.046;10.676;2022-08-21T07:45:47;21.20;99.60
11126;DHT22;5617;54.046;10.676;2022-08-21T07:47:56;21.30;99.10
11126;DHT22;5617;54.046;10.676;2022-08-21T07:50:04;21.40;98.70
11126;DHT22;5617;54.046;10.676;2022-08-21T07:52:12;21.50;98.50
11126;DHT22;5617;54.046;10.676;2022-08-21T07:54:19;21.70;98.00
11126;DHT22;5617;54.046;10.676;2022-08-21T07:56:27;21.80;97.40
11126;DHT22;5617;54.046;10.676;2022-08-21T07:58:35;21.90;96.80
11126;DHT22;5617;54.046;10.676;2022-08-21T08:00:44;21.90;96.30
11126;DHT22;5617;54.046;10.676;2022-08-21T08:02:52;22.10;96.30
11126;DHT22;5617;54.046;10.676;2022-08-21T08:05:01;22.20;96.00
11126;DHT22;5617;54.046;10.676;2022-08-21T08:07:09;22.30;95.70
11126;DHT22;5617;54.046;10.676;2022-08-21T08:09:17;22.40;95.20
11126;DHT22;5617;54.046;10.676;2022-08-21T08:11:24;22.60;94.50
11126;DHT22;5617;54.046;10.676;2022-08-21T08:13:37;22.60;93.70
11126;DHT22;5617;54.046;10.676;2022-08-21T08:15:46;22.80;93.50
11126;DHT22;5617;54.046;10.676;2022-08-21T08:17:54;22.90;92.50
11126;DHT22;5617;54.046;10.676;2022-08-21T08:20:03;22.90;91.80
11126;DHT22;5617;54.046;10.676;2022-08-21T08:22:15;22.90;91.20
11126;DHT22;5617;54.046;10.676;2022-08-21T08:24:23;23.00;90.80
11126;DHT22;5617;54.046;10.676;2022-08-21T08:26:30;23.10;90.10
11126;DHT22;5617;54.046;10.676;2022-08-21T08:28:38;23.20;89.10
11126;DHT22;5617;54.046;10.676;2022-08-21T08:30:47;23.30;88.80
11126;DHT22;5617;54.046;10.676;2022-08-21T08:32:56;23.40;87.90
11126;DHT22;5617;54.046;10.676;2022-08-21T08:35:05;23.50;87.50
11126;DHT22;5617;54.046;10.676;2022-08-21T08:37:13;23.70;87.50
11126;DHT22;5617;54.046;10.676;2022-08-21T08:39:21;23.80;86.60
11126;DHT22;5617;54.046;10.676;2022-08-21T08:41:30;23.80;86.70
11126;DHT22;5617;54.046;10.676;2022-08-21T08:43:38;23.80;85.50
11126;DHT22;5617;54.046;10.676;2022-08-21T08:45:50;23.90;85.60
11126;DHT22;5617;54.046;10.676;2022-08-21T08:48:01;24.00;84.00
11126;DHT22;5617;54.046;10.676;2022-08-21T08:50:13;24.00;84.30
11126;DHT22;5617;54.046;10.676;2022-08-21T08:52:28;24.10;84.10
11126;DHT22;5617;54.046;10.676;2022-08-21T08:54:40;24.20;84.10
11126;DHT22;5617;54.046;10.676;2022-08-21T08:56:48;24.20;83.50
11126;DHT22;5617;54.046;10.676;2022-08-21T08:59:02;24.30;83.50
11126;DHT22;5617;54.046;10.676;2022-08-21T09:01:18;24.40;83.20
11126;DHT22;5617;54.046;10.676;2022-08-21T09:03:27;24.50;83.20
11126;DHT22;5617;54.046;10.676;2022-08-21T09:05:42;24.70;83.00
11126;DHT22;5617;54.046;10.676;2022-08-21T09:08:05;24.80;82.70
11126;DHT22;5617;54.046;10.676;2022-08-21T09:10:23;24.80;82.60
11126;DHT22;5617;54.046;10.676;2022-08-21T09:12:44;24.80;83.20
11126;DHT22;5617;54.046;10.676;2022-08-21T09:15:08;24.90;83.10
11126;DHT22;5617;54.046;10.676;2022-08-21T09:17:31;24.90;82.40
11126;DHT22;5617;54.046;10.676;2022-08-21T09:19:53;24.90;82.50
11126;DHT22;5617;54.046;10.676;2022-08-21T09:22:08;25.00;82.70
11126;DHT22;5617;54.046;10.676;2022-08-21T09:24:27;25.10;83.20
11126;DHT22;5617;54.046;10.676;2022-08-21T09:26:40;25.20;82.20
11126;DHT22;5617;54.046;10.676;2022-08-21T09:28:52;25.20;81.40
11126;DHT22;5617;54.046;10.676;2022-08-21T09:31:04;25.20;80.90
11126;DHT22;5617;54.046;10.676;2022-08-21T09:33:14;25.30;81.10
11126;DHT22;5617;54.046;10.676;2022-08-21T09:35:24;25.40;80.80
11126;DHT22;5617;54.046;10.676;2022-08-21T09:37:34;25.50;80.60
11126;DHT22;5617;54.046;10.676;2022-08-21T09:39:43;25.60;80.80
11126;DHT22;5617;54.046;10.676;2022-08-21T09:41:56;25.60;78.80
11126;DHT22;5617;54.046;10.676;2022-08-21T09:44:06;25.70;79.10
11126;DHT22;5617;54.046;10.676;2022-08-21T09:46:21;25.70;79.10
11126;DHT22;5617;54.046;10.676;2022-08-21T09:48:39;25.70;78.70
11126;DHT22;5617;54.046;10.676;2022-08-21T09:50:49;25.90;79.20
11126;DHT22;5617;54.046;10.676;2022-08-21T09:52:58;26.00;78.10
11126;DHT22;5617;54.046;10.676;2022-08-21T09:55:15;26.00;77.40
11126;DHT22;5617;54.046;10.676;2022-08-21T09:57:45;26.10;77.00
11126;DHT22;5617;54.046;10.676;2022-08-21T09:59:53;26.10;76.70
11126;DHT22;5617;54.046;10.676;2022-08-21T10:02:16;26.20;76.90
11126;DHT22;5617;54.046;10.676;2022-08-21T10:04:29;26.40;76.90
11126;DHT22;5617;54.046;10.676;2022-08-21T10:06:38;26.60;76.90
11126;DHT22;5617;54.046;10.676;2022-08-21T10:08:46;26.50;76.00
11126;DHT22;5617;54.046;10.676;2022-08-21T10:11:01;26.50;76.90
11126;DHT22;5617;54.046;10.676;2022-08-21T10:13:13;26.50;76.00
11126;DHT22;5617;54.046;10.676;2022-08-21T10:15:32;26.60;75.20
11126;DHT22;5617;54.046;10.676;2022-08-21T10:17:48;26.50;75.10
11126;DHT22;5617;54.046;10.676;2022-08-21T10:20:07;26.60;75.80
11126;DHT22;5617;54.046;10.676;2022-08-21T10:22:27;26.70;75.50
11126;DHT22;5617;54.046;10.676;2022-08-21T10:24:44;26.90;75.20
11126;DHT22;5617;54.046;10.676;2022-08-21T10:27:04;26.90;74.00
11126;DHT22;5617;54.046;10.676;2022-08-21T10:29:21;27.00;73.30
11126;DHT22;5617;54.046;10.676;2022-08-21T10:31:39;26.90;72.70
11126;DHT22;5617;54.046;10.676;2022-08-21T10:34:02;26.70;73.30
11126;DHT22;5617;54.046;10.676;2022-08-21T10:36:18;26.60;73.80
11126;DHT22;5617;54.046;10.676;2022-08-21T10:41:11;27.00;72.90
11126;DHT22;5617;54.046;10.676;2022-08-21T10:43:25;27.20;72.90
11126;DHT22;5617;54.046;10.676;2022-08-21T10:45:50;27.30;72.10
11126;DHT22;5617;54.046;10.676;2022-08-21T10:48:03;27.10;72.70
11126;DHT22;5617;54.046;10.676;2022-08-21T10:50:19;26.70;71.90
11126;DHT22;5617;54.046;10.676;2022-08-21T10:52:41;26.40;72.40
11126;DHT22;5617;54.046;10.676;2022-08-21T10:54:59;26.20;72.90
11126;DHT22;5617;54.046;10.676;2022-08-21T10:57:11;26.20;73.40
11126;DHT22;5617;54.046;10.676;2022-08-21T10:59:26;26.50;72.90
11126;DHT22;5617;54.046;10.676;2022-08-21T11:01:44;26.50;72.90
11126;DHT22;5617;54.046;10.676;2022-08-21T11:04:03;26.40;72.60
11126;DHT22;5617;54.046;10.676;2022-08-21T11:06:14;26.40;73.10
11126;DHT22;5617;54.046;10.676;2022-08-21T11:08:29;26.60;72.70
11126;DHT22;5617;54.046;10.676;2022-08-21T11:10:40;26.70;72.70
11126;DHT22;5617;54.046;10.676;2022-08-21T11:12:52;27.00;72.70
11126;DHT22;5617;54.046;10.676;2022-08-21T11:15:07;27.20;72.30
11126;DHT22;5617;54.046;10.676;2022-08-21T11:17:24;27.20;71.10
11126;DHT22;5617;54.046;10.676;2022-08-21T11:19:39;27.30;70.80
11126;DHT22;5617;54.046;10.676;2022-08-21T11:21:50;27.30;70.50
11126;DHT22;5617;54.046;10.676;2022-08-21T11:24:03;27.40;70.10
11126;DHT22;5617;54.046;10.676;2022-08-21T11:26:30;27.50;70.30
11126;DHT22;5617;54.046;10.676;2022-08-21T11:28:44;27.70;69.90
11126;DHT22;5617;54.046;10.676;2022-08-21T11:31:02;27.50;69.30
11126;DHT22;5617;54.046;10.676;2022-08-21T11:33:28;27.10;69.60
11126;DHT22;5617;54.046;10.676;2022-08-21T11:35:43;26.80;70.70
11126;DHT22;5617;54.046;10.676;2022-08-21T11:38:01;26.80;70.20
11126;DHT22;5617;54.046;10.676;2022-08-21T11:40:24;27.10;70.30
11126;DHT22;5617;54.046;10.676;2022-08-21T11:42:40;27.10;70.40
11126;DHT22;5617;54.046;10.676;2022-08-21T11:44:59;26.90;70.10
11126;DHT22;5617;54.046;10.676;2022-08-21T11:47:15;26.70;70.40
11126;DHT22;5617;54.046;10.676;2022-08-21T11:49:32;26.40;70.80
11126;DHT22;5617;54.046;10.676;2022-08-21T11:51:46;26.60;70.80
11126;DHT22;5617;54.046;10.676;2022-08-21T11:54:05;27.00;70.50
11126;DHT22;5617;54.046;10.676;2022-08-21T11:56:21;27.20;69.30
11126;DHT22;5617;54.046;10.676;2022-08-21T11:58:36;27.40;68.70
11126;DHT22;5617;54.046;10.676;2022-08-21T12:00:48;27.70;67.70
11126;DHT22;5617;54.046;10.676;2022-08-21T12:03:04;27.80;66.90
11126;DHT22;5617;54.046;10.676;2022-08-21T12:05:25;27.80;66.60
11126;DHT22;5617;54.046;10.676;2022-08-21T12:07:37;27.80;66.70
11126;DHT22;5617;54.046;10.676;2022-08-21T12:09:53;27.80;67.00
11126;DHT22;5617;54.046;10.676;2022-08-21T12:12:06;27.90;66.30
11126;DHT22;5617;54.046;10.676;2022-08-21T12:14:18;28.00;66.00
11126;DHT22;5617;54.046;10.676;2022-08-21T12:16:31;28.20;66.00
11126;DHT22;5617;54.046;10.676;2022-08-21T12:18:39;28.10;65.80
11126;DHT22;5617;54.046;10.676;2022-08-21T12:20:58;27.90;66.40
11126;DHT22;5617;54.046;10.676;2022-08-21T12:23:18;27.70;66.60
11126;DHT22;5617;54.046;10.676;2022-08-21T12:25:36;27.50;67.20
11126;DHT22;5617;54.046;10.676;2022-08-21T12:27:49;27.20;67.30
11126;DHT22;5617;54.046;10.676;2022-08-21T12:29:59;27.20;67.40
11126;DHT22;5617;54.046;10.676;2022-08-21T12:32:23;27.10;67.20
11126;DHT22;5617;54.046;10.676;2022-08-21T12:34:35;27.10;68.20
11126;DHT22;5617;54.046;10.676;2022-08-21T12:36:52;27.40;67.20
11126;DHT22;5617;54.046;10.676;2022-08-21T12:39:04;27.70;66.90
11126;DHT22;5617;54.046;10.676;2022-08-21T12:41:18;27.90;66.40
11126;DHT22;5617;54.046;10.676;2022-08-21T12:43:33;28.10;66.60
11126;DHT22;5617;54.046;10.676;2022-08-21T12:45:43;28.30;64.10
11126;DHT22;5617;54.046;10.676;2022-08-21T12:47:56;28.40;64.10
11126;DHT22;5617;54.046;10.676;2022-08-21T12:50:08;28.40;63.60
11126;DHT22;5617;54.046;10.676;2022-08-21T12:52:19;28.00;64.40
11126;DHT22;5617;54.046;10.676;2022-08-21T12:54:30;27.70;65.40
11126;DHT22;5617;54.046;10.676;2022-08-21T12:56:37;27.40;66.20
11126;DHT22;5617;54.046;10.676;2022-08-21T12:58:49;27.20;66.60
11126;DHT22;5617;54.046;10.676;2022-08-21T13:01:01;27.00;67.50
11126;DHT22;5617;54.046;10.676;2022-08-21T13:03:09;27.00;66.90
11126;DHT22;5617;54.046;10.676;2022-08-21T13:05:23;27.00;66.80
11126;DHT22;5617;54.046;10.676;2022-08-21T13:07:34;26.90;67.00
11126;DHT22;5617;54.046;10.676;2022-08-21T13:09:52;26.70;66.80
11126;DHT22;5617;54.046;10.676;2022-08-21T13:12:00;26.60;66.80
11126;DHT22;5617;54.046;10.676;2022-08-21T13:14:21;26.50;67.20
11126;DHT22;5617;54.046;10.676;2022-08-21T13:16:31;26.90;67.10
11126;DHT22;5617;54.046;10.676;2022-08-21T13:18:55;27.10;66.60
11126;DHT22;5617;54.046;10.676;2022-08-21T13:21:06;27.20;66.50
11126;DHT22;5617;54.046;10.676;2022-08-21T13:23:24;27.50;65.70
11126;DHT22;5617;54.046;10.676;2022-08-21T13:25:35;27.50;64.70
11126;DHT22;5617;54.046;10.676;2022-08-21T13:27:55;27.60;64.50
11126;DHT22;5617;54.046;10.676;2022-08-21T13:30:10;27.70;64.10
11126;DHT22;5617;54.046;10.676;2022-08-21T13:32:21;27.80;63.10
11126;DHT22;5617;54.046;10.676;2022-08-21T13:34:34;27.70;62.90
11126;DHT22;5617;54.046;10.676;2022-08-21T13:36:42;27.50;62.90
11126;DHT22;5617;54.046;10.676;2022-08-21T13:38:51;27.60;63.00
11126;DHT22;5617;54.046;10.676;2022-08-21T13:41:03;27.80;63.50
11126;DHT22;5617;54.046;10.676;2022-08-21T13:43:12;28.10;63.40
11126;DHT22;5617;54.046;10.676;2022-08-21T13:45:26;28.30;61.70
11126;DHT22;5617;54.046;10.676;2022-08-21T13:47:34;28.20;59.80